Time;durP1;ratioP1;P1;durP2;ratioP2;P2;SDS_P1;SDS_P2;PMS_P1;PMS_P2;Temp;Humidity;BMP_temperature;BMP_pressure;BME280_temperature;BME280_humidity;BME280_pressure;Samples;Min_cycle;Max_cycle;Signal;HPM_P1;HPM_P2
2023/06/24 00:00:59;;;;;;;14.93;11.45;;;;;;;25.06;64.03;99332.31;5027942;28;20458;-76
2023/06/24 00:03:25;;;;;;;20.30;12.80;;;;;;;25.01;64.06;99341.44;5022698;28;20032;-76
2023/06/24 00:05:50;;;;;;;17.35;12.90;;;;;;;25.12;63.92;99340.41;5033494;28;20583;-76
2023/06/24 00:08:19;;;;;;;14.40;12.90;;;;;;;25.21;63.54;99327.13;5013995;28;20033;-76
2023/06/24 00:10:46;;;;;;;12.57;11.27;;;;;;;24.80;64.93;99328.34;5038502;28;20029;-76
2023/06/24 00:13:12;;;;;;;13.57;12.27;;;;;;;24.60;65.04;99325.38;5041855;28;20048;-76
2023/06/24 00:15:42;;;;;;;14.15;11.75;;;;;;;24.49;66.04;99332.09;5013982;28;20056;-76
2023/06/24 00:18:11;;;;;;;14.05;12.63;;;;;;;24.46;66.41;99330.09;5030609;28;20032;-76
2023/06/24 00:20:36;;;;;;;14.98;12.18;;;;;;;24.43;66.58;99325.25;5013828;28;20041;-76
2023/06/24 00:23:02;;;;;;;15.18;11.18;;;;;;;24.56;65.78;99331.19;5033814;28;20459;-76
2023/06/24 00:25:28;;;;;;;15.65;13.10;;;;;;;24.67;65.44;99328.13;5030619;28;20029;-76
2023/06/24 00:27:53;;;;;;;18.75;13.60;;;;;;;24.86;64.80;99318.00;5014225;28;20025;-76
2023/06/24 00:30:19;;;;;;;17.05;13.00;;;;;;;24.57;66.07;99323.41;5017783;28;20030;-76
2023/06/24 00:32:44;;;;;;;18.45;12.20;;;;;;;24.39;66.40;99327.38;5027794;28;20033;-76
2023/06/24 00:35:12;;;;;;;18.13;12.70;;;;;;;24.46;66.13;99323.59;5045011;28;20029;-76
2023/06/24 00:37:38;;;;;;;17.13;13.02;;;;;;;24.66;65.24;99313.00;5038121;28;20463;-76
2023/06/24 00:40:04;;;;;;;14.05;12.50;;;;;;;24.59;65.56;99315.19;5026677;28;20170;-76
2023/06/24 00:42:31;;;;;;;24.38;12.50;;;;;;;24.49;65.71;99317.78;5016239;28;20408;-76
2023/06/24 00:44:56;;;;;;;17.33;12.20;;;;;;;24.63;65.53;99331.03;5049111;28;20059;-76
2023/06/24 00:47:23;;;;;;;16.17;12.48;;;;;;;24.64;65.40;99306.91;5032189;28;20521;-76
2023/06/24 00:49:49;;;;;;;14.45;12.90;;;;;;;24.73;64.80;99312.06;5027912;28;20029;-76
2023/06/24 00:52:15;;;;;;;17.30;12.98;;;;;;;24.39;66.34;99313.09;5033723;28;20114;-76
2023/06/24 00:54:44;;;;;;;15.82;12.75;;;;;;;24.11;67.42;99318.84;5018794;28;20036;-76
2023/06/24 00:57:10;;;;;;;15.15;12.70;;;;;;;24.15;66.99;99321.63;5018513;28;20025;-76
2023/06/24 00:59:37;;;;;;;16.10;12.52;;;;;;;24.42;66.42;99312.22;5022466;28;20026;-76
2023/06/24 01:02:04;;;;;;;14.35;11.30;;;;;;;24.42;65.81;99305.69;5030562;28;20021;-75
2023/06/24 01:04:33;;;;;;;16.23;13.32;;;;;;;24.30;66.55;99315.69;5025921;28;20080;-76
2023/06/24 01:06:59;;;;;;;19.10;13.57;;;;;;;24.22;67.07;99315.78;5033631;28;20025;-75
2023/06/24 01:09:25;;;;;;;14.63;12.57;;;;;;;24.24;66.62;99307.59;5017800;28;20025;-76
2023/06/24 01:11:51;;;;;;;13.45;12.05;;;;;;;24.11;67.12;99315.16;5023869;28;20404;-76
2023/06/24 01:14:23;;;;;;;14.30;12.38;;;;;;;23.92;67.99;99308.91;5047438;28;20081;-76
2023/06/24 01:16:56;;;;;;;18.23;14.13;;;;;;;24.00;67.77;99309.59;5020024;28;20446;-76
2023/06/24 01:19:49;;;;;;;17.38;12.25;;;;;;;24.09;67.35;99323.34;5050461;28;20130;-76
2023/06/24 01:22:15;;;;;;;13.27;11.88;;;;;;;24.08;67.45;99324.59;5044426;28;21447;-76
2023/06/24 01:24:50;;;;;;;15.40;12.05;;;;;;;23.89;67.92;99311.81;5049597;28;20101;-75
2023/06/24 01:27:38;;;;;;;14.50;13.00;;;;;;;23.92;67.45;99299.50;5013695;28;20025;-76
2023/06/24 01:30:31;;;;;;;14.00;12.40;;;;;;;24.05;67.27;99305.47;5019435;28;20036;-76
2023/06/24 01:33:03;;;;;;;16.55;13.43;;;;;;;23.27;69.55;99310.56;5031662;28;20079;-76
2023/06/24 01:35:34;;;;;;;13.70;12.10;;;;;;;23.52;69.26;99315.16;5019072;28;20028;-76
2023/06/24 01:38:10;;;;;;;18.10;12.88;;;;;;;23.76;68.70;99312.38;5031870;28;20038;-76
2023/06/24 01:40:44;;;;;;;23.00;12.90;;;;;;;23.89;68.21;99315.47;5034000;28;20112;-76
2023/06/24 01:43:11;;;;;;;16.30;13.38;;;;;;;23.95;67.56;99313.75;5013029;28;20029;-76
2023/06/24 01:45:42;;;;;;;15.43;12.25;;;;;;;24.06;67.54;99329.94;5020592;28;20024;-76
2023/06/24 01:48:13;;;;;;;18.75;12.73;;;;;;;24.03;67.31;99316.50;5020928;28;20056;-76
2023/06/24 01:50:42;;;;;;;15.73;12.38;;;;;;;23.67;68.71;99306.38;5029764;28;20061;-75
2023/06/24 01:53:09;;;;;;;14.55;12.93;;;;;;;23.68;68.42;99311.69;5013905;28;20435;-75
2023/06/24 01:55:38;;;;;;;17.48;12.77;;;;;;;23.98;67.41;99323.50;5035322;28;20087;-76
2023/06/24 01:58:07;;;;;;;15.50;13.77;;;;;;;23.91;66.88;99318.72;5029301;28;20030;-76
2023/06/24 02:00:35;;;;;;;17.27;12.00;;;;;;;23.82;67.13;99319.22;5032841;28;20056;-76
2023/06/24 02:03:02;;;;;;;20.60;12.30;;;;;;;23.86;67.09;99324.88;5043845;28;20083;-76
2023/06/24 02:05:29;;;;;;;17.15;13.23;;;;;;;23.81;67.28;99322.53;5023173;28;20041;-76
2023/06/24 02:07:57;;;;;;;18.70;13.52;;;;;;;23.65;67.50;99315.41;5036413;28;20029;-76
2023/06/24 02:10:23;;;;;;;17.40;14.18;;;;;;;23.77;67.12;99331.13;5049896;28;20032;-76
2023/06/24 02:12:51;;;;;;;18.77;14.73;;;;;;;23.74;67.35;99340.56;5030401;28;20033;-75
2023/06/24 02:15:18;;;;;;;17.10;14.15;;;;;;;23.65;67.66;99334.56;5037010;28;20118;-76
2023/06/24 02:17:47;;;;;;;20.42;15.13;;;;;;;23.72;67.14;99345.91;5025214;28;20029;-76
2023/06/24 02:20:14;;;;;;;18.88;14.93;;;;;;;23.20;69.09;99353.41;5040524;28;20057;-76
2023/06/24 02:22:41;;;;;;;20.20;15.00;;;;;;;22.29;71.60;99357.06;5038927;28;20024;-76
2023/06/24 02:25:08;;;;;;;21.98;14.32;;;;;;;21.88;72.64;99357.75;5035625;28;20119;-76
2023/06/24 02:27:35;;;;;;;18.85;14.45;;;;;;;21.08;76.31;99360.88;5054605;28;20024;-76
2023/06/24 02:30:05;;;;;;;20.70;15.32;;;;;;;21.21;77.34;99371.81;5033388;28;20447;-76
2023/06/24 02:32:30;;;;;;;22.40;14.57;;;;;;;21.12;77.10;99375.91;5048621;28;20055;-76
2023/06/24 02:34:58;;;;;;;22.83;16.65;;;;;;;20.83;78.86;99375.94;5038063;28;20030;-76
2023/06/24 02:37:23;;;;;;;19.25;14.88;;;;;;;20.84;79.07;99386.09;5037136;28;20026;-76
2023/06/24 02:39:49;;;;;;;19.60;15.73;;;;;;;21.20;78.15;99378.72;5023529;28;20573;-76
2023/06/24 02:42:14;;;;;;;28.80;15.38;;;;;;;21.67;76.15;99387.16;5045654;28;20029;-76
2023/06/24 02:44:41;;;;;;;19.38;14.82;;;;;;;21.72;74.91;99370.47;5048774;28;20029;-76
2023/06/24 02:47:09;;;;;;;17.02;13.07;;;;;;;21.95;73.87;99389.03;5024974;28;20067;-76
2023/06/24 02:49:37;;;;;;;22.55;15.02;;;;;;;22.07;73.29;99386.91;5033846;28;20018;-77
2023/06/24 02:52:03;;;;;;;16.73;12.93;;;;;;;21.90;73.39;99378.06;5041678;28;20051;-78
2023/06/24 02:54:29;;;;;;;17.60;14.20;;;;;;;22.10;72.61;99375.50;5051098;28;20021;-74
2023/06/24 02:56:57;;;;;;;15.27;12.65;;;;;;;22.24;71.85;99383.16;5040622;28;21818;-75
2023/06/24 02:59:23;;;;;;;21.08;13.50;;;;;;;22.29;71.49;99393.31;5033204;28;20128;-76
2023/06/24 03:01:51;;;;;;;21.63;14.90;;;;;;;22.32;71.72;99400.19;5036807;28;20074;-75
2023/06/24 03:04:19;;;;;;;22.05;15.18;;;;;;;22.47;71.06;99392.34;5034264;28;20589;-75
2023/06/24 03:06:46;;;;;;;17.13;13.93;;;;;;;22.60;70.35;99395.56;5025079;28;20024;-75
2023/06/24 03:09:11;;;;;;;16.27;13.25;;;;;;;22.68;70.13;99391.41;5030877;28;20044;-76
2023/06/24 03:11:41;;;;;;;17.45;13.13;;;;;;;22.54;70.49;99381.72;5040554;28;20473;-77
2023/06/24 03:14:06;;;;;;;17.25;13.70;;;;;;;22.76;69.69;99387.25;5019694;28;20116;-77
2023/06/24 03:16:32;;;;;;;22.13;14.18;;;;;;;22.71;69.86;99387.72;5045648;28;20033;-77
2023/06/24 03:18:57;;;;;;;27.20;13.65;;;;;;;22.84;69.47;99379.44;5018875;28;20443;-76
2023/06/24 03:21:28;;;;;;;17.80;13.65;;;;;;;22.89;69.06;99389.59;5033725;28;20083;-76
2023/06/24 03:23:58;;;;;;;20.80;14.20;;;;;;;22.66;69.91;99391.00;5032572;28;20117;-76
2023/06/24 03:26:44;;;;;;;21.08;13.68;;;;;;;22.61;70.14;99397.16;5019478;28;20025;-76
2023/06/24 03:29:10;;;;;;;19.52;14.25;;;;;;;22.58;70.11;99395.97;5042292;28;20040;-76
2023/06/24 03:31:35;;;;;;;20.20;13.57;;;;;;;22.45;70.03;99401.34;5040643;28;20026;-81
2023/06/24 03:34:01;;;;;;;19.80;13.18;;;;;;;22.28;70.26;99386.00;5023575;28;20377;-77
2023/06/24 03:36:27;;;;;;;21.73;13.55;;;;;;;22.27;70.22;99385.16;5035526;28;20396;-77
2023/06/24 03:38:52;;;;;;;17.60;13.88;;;;;;;22.39;69.69;99385.91;5053367;28;20048;-77
2023/06/24 03:41:18;;;;;;;19.73;13.45;;;;;;;22.45;68.98;99375.69;5051705;28;20091;-77
2023/06/24 03:43:44;;;;;;;31.52;14.52;;;;;;;22.62;68.82;99373.13;5032041;28;20028;-79
2023/06/24 03:46:10;;;;;;;20.35;13.77;;;;;;;22.77;68.10;99382.38;5026855;28;20030;-78
2023/06/24 03:48:37;;;;;;;16.63;14.65;;;;;;;22.74;68.06;99388.91;5040827;28;20029;-78
2023/06/24 03:51:03;;;;;;;17.45;13.02;;;;;;;22.81;67.71;99386.00;5040772;28;20025;-76
2023/06/24 03:53:28;;;;;;;22.75;12.98;;;;;;;22.85;67.57;99381.06;5054132;28;20159;-75
2023/06/24 03:55:54;;;;;;;17.63;11.93;;;;;;;23.06;66.59;99385.78;5015327;28;20022;-76
2023/06/24 03:58:20;;;;;;;15.30;13.00;;;;;;;23.09;66.00;99395.50;5038342;28;20025;-79
2023/06/24 04:00:49;;;;;;;18.52;11.48;;;;;;;23.11;64.24;99391.00;5031587;28;20033;-81
2023/06/24 04:03:17;;;;;;;17.58;13.30;;;;;;;22.63;66.67;99395.53;5023178;28;20519;-79
2023/06/24 04:05:43;;;;;;;22.33;12.52;;;;;;;22.38;67.80;99405.03;5031499;28;20196;-80
2023/06/24 04:08:08;;;;;;;17.13;12.77;;;;;;;21.87;70.92;99405.34;5014704;28;20431;-80
2023/06/24 04:10:34;;;;;;;22.23;14.40;;;;;;;21.51;74.16;99405.44;5015164;28;20025;-80
2023/06/24 04:12:59;;;;;;;19.42;15.77;;;;;;;21.38;76.12;99412.81;5014534;28;20389;-80
2023/06/24 04:15:25;;;;;;;21.08;14.13;;;;;;;21.01;76.31;99410.03;5044902;28;20036;-80
2023/06/24 04:17:50;;;;;;;19.83;14.23;;;;;;;20.94;76.90;99406.41;5030566;28;20076;-80
2023/06/24 04:20:15;;;;;;;16.45;14.75;;;;;;;20.93;77.61;99410.47;5015784;28;20026;-80
2023/06/24 04:22:42;;;;;;;17.45;14.05;;;;;;;20.93;75.89;99411.25;5032551;28;20026;-79
2023/06/24 04:25:08;;;;;;;16.48;11.70;;;;;;;21.23;72.55;99412.03;5014500;28;20032;-80
2023/06/24 04:27:34;;;;;;;14.15;11.18;;;;;;;21.50;70.65;99418.06;5014687;28;20503;-80
2023/06/24 04:30:00;;;;;;;14.15;11.02;;;;;;;21.63;69.50;99417.59;5013605;28;20017;-80
2023/06/24 04:32:26;;;;;;;13.82;10.93;;;;;;;21.88;69.15;99423.22;5043364;28;20033;-80
2023/06/24 04:34:51;;;;;;;18.08;11.18;;;;;;;22.14;68.16;99432.47;5052326;28;20040;-80
2023/06/24 04:37:17;;;;;;;19.70;10.63;;;;;;;21.74;68.61;99444.84;5043147;28;20512;-79
2023/06/24 04:39:46;;;;;;;19.40;11.30;;;;;;;21.92;68.62;99443.94;5016540;28;20013;-80
2023/06/24 04:42:11;;;;;;;18.77;10.75;;;;;;;22.37;66.42;99453.88;5031147;28;20059;-80
2023/06/24 04:44:37;;;;;;;12.35;10.10;;;;;;;22.52;64.33;99444.03;5034140;28;20029;-80
2023/06/24 04:47:03;;;;;;;19.52;10.10;;;;;;;22.76;64.60;99444.28;5033117;28;20163;-80
2023/06/24 04:49:28;;;;;;;69.53;12.93;;;;;;;23.09;63.04;99450.50;5052104;28;20021;-80
2023/06/24 04:51:54;;;;;;;46.55;11.48;;;;;;;23.28;62.68;99454.00;5028970;28;20040;-79
2023/06/24 04:54:19;;;;;;;15.80;11.70;;;;;;;23.59;62.28;99451.25;5034045;28;20460;-79
2023/06/24 04:56:45;;;;;;;17.27;10.60;;;;;;;23.48;60.75;99462.81;5014334;28;20044;-80
2023/06/24 04:59:11;;;;;;;17.00;10.20;;;;;;;23.64;60.59;99462.19;5031171;28;20025;-79
2023/06/24 05:01:36;;;;;;;11.00;9.82;;;;;;;24.07;60.68;99458.06;5014168;28;20025;-80
2023/06/24 05:04:02;;;;;;;15.35;12.02;;;;;;;24.29;58.36;99459.81;5014021;28;20469;-80
2023/06/24 05:06:27;;;;;;;14.05;10.77;;;;;;;24.54;58.93;99463.09;5014078;28;20029;-80
2023/06/24 05:08:53;;;;;;;13.38;9.95;;;;;;;24.72;57.05;99461.22;5034473;28;20025;-79
2023/06/24 05:11:18;;;;;;;12.02;10.63;;;;;;;24.63;56.77;99470.34;5030194;28;20072;-79
2023/06/24 05:13:44;;;;;;;15.27;11.00;;;;;;;24.08;57.45;99464.56;5013799;28;20021;-79
2023/06/24 05:16:10;;;;;;;18.05;10.65;;;;;;;24.25;57.65;99477.00;5031671;28;20025;-80
2023/06/24 05:18:35;;;;;;;12.05;10.13;;;;;;;24.24;59.17;99478.22;5010366;28;20100;-82
2023/06/24 05:21:01;;;;;;;13.88;9.45;;;;;;;24.52;58.32;99476.19;5011963;28;20029;-82
2023/06/24 05:23:27;;;;;;;17.30;10.15;;;;;;;24.81;58.02;99475.81;5010145;28;20116;-85
2023/06/24 05:25:52;;;;;;;16.85;11.15;;;;;;;24.67;56.93;99482.50;5009835;28;20427;-81
2023/06/24 05:28:18;;;;;;;14.57;11.50;;;;;;;24.86;55.61;99477.34;5011103;28;20830;-82
2023/06/24 05:30:45;;;;;;;15.02;10.98;;;;;;;24.98;56.39;99479.63;5020363;28;20026;-80
2023/06/24 05:33:10;;;;;;;15.90;11.68;;;;;;;24.85;56.04;99475.72;5011258;28;20524;-82
2023/06/24 05:35:39;;;;;;;16.60;10.80;;;;;;;25.01;56.14;99473.03;5031357;28;20053;-84
2023/06/24 05:38:05;;;;;;;18.10;10.68;;;;;;;25.13;55.58;99467.91;5015580;28;20030;-80
2023/06/24 05:40:31;;;;;;;17.42;10.40;;;;;;;25.07;55.87;99476.19;5011049;28;20036;-79
2023/06/24 05:42:56;;;;;;;13.10;11.20;;;;;;;24.74;57.67;99476.69;5025867;28;20026;-77
2023/06/24 05:45:21;;;;;;;15.43;10.68;;;;;;;25.06;56.05;99458.22;5024896;28;20029;-76
2023/06/24 05:47:47;;;;;;;21.08;13.80;;;;;;;25.01;57.54;99467.28;5009652;28;20037;-76
2023/06/24 05:50:12;;;;;;;26.63;16.00;;;;;;;25.09;59.42;99477.34;5013470;28;20037;-81
2023/06/24 05:52:38;;;;;;;21.73;16.33;;;;;;;25.19;59.89;99478.44;5023437;28;20103;-83
2023/06/24 05:55:04;;;;;;;55.25;29.73;;;;;;;25.41;62.03;99472.31;5011529;28;20033;-81
2023/06/24 05:57:29;;;;;;;25.63;18.55;;;;;;;25.22;63.41;99476.75;5015677;28;20052;-82
2023/06/24 05:59:55;;;;;;;24.15;17.25;;;;;;;25.48;62.70;99474.25;5019467;28;20156;-81
2023/06/24 06:02:20;;;;;;;25.98;19.27;;;;;;;25.77;62.56;99465.09;5024254;28;20022;-82
2023/06/24 06:04:47;;;;;;;22.70;17.20;;;;;;;25.61;62.34;99460.91;5028088;28;20582;-81
2023/06/24 06:07:12;;;;;;;24.38;18.50;;;;;;;25.35;63.42;99459.75;5029711;28;20555;-82
2023/06/24 06:09:38;;;;;;;27.75;19.17;;;;;;;25.07;64.28;99459.81;5018545;28;20069;-81
2023/06/24 06:12:04;;;;;;;28.70;17.70;;;;;;;25.18;62.87;99453.09;5010062;28;20025;-84
2023/06/24 06:14:29;;;;;;;23.27;16.08;;;;;;;25.59;61.33;99454.84;5021153;28;20037;-77
2023/06/24 06:16:55;;;;;;;30.08;17.17;;;;;;;25.50;61.69;99437.41;5019252;28;20033;-79
2023/06/24 06:19:20;;;;;;;22.88;16.73;;;;;;;24.85;63.82;99435.69;5023145;28;20049;-80
2023/06/24 06:21:46;;;;;;;26.73;17.88;;;;;;;25.59;62.58;99431.09;5030838;28;20029;-77
2023/06/24 06:24:11;;;;;;;30.02;16.83;;;;;;;25.97;60.50;99433.59;5032865;28;20075;-76
2023/06/24 06:26:42;;;;;;;22.08;17.15;;;;;;;26.27;60.25;99428.06;5018926;28;20037;-78
2023/06/24 06:29:07;;;;;;;24.35;19.02;;;;;;;26.44;59.55;99437.50;5035294;28;20029;-76
2023/06/24 06:31:33;;;;;;;18.13;16.23;;;;;;;26.55;58.58;99435.19;5042066;28;20366;-82
2023/06/24 06:33:58;;;;;;;19.67;16.77;;;;;;;26.10;58.51;99430.03;5029213;28;20028;-89
2023/06/24 06:36:24;;;;;;;19.38;15.75;;;;;;;25.70;59.70;99431.69;5037384;28;20030;-81
2023/06/24 06:38:50;;;;;;;24.95;16.48;;;;;;;26.02;59.08;99426.53;5047051;28;20033;-75
2023/06/24 06:41:15;;;;;;;18.63;16.60;;;;;;;26.30;57.49;99422.25;5045172;28;20507;-77
2023/06/24 06:43:41;;;;;;;16.65;14.90;;;;;;;26.55;56.34;99425.78;5024116;28;20476;-78
2023/06/24 06:46:06;;;;;;;19.02;14.60;;;;;;;27.07;56.79;99426.16;5027664;28;20022;-77
2023/06/24 06:48:32;;;;;;;17.10;15.30;;;;;;;27.42;55.13;99426.44;5036371;28;20032;-77
2023/06/24 06:50:58;;;;;;;18.40;15.50;;;;;;;27.51;54.11;99417.19;5029355;28;20519;-77
2023/06/24 06:53:23;;;;;;;18.55;14.82;;;;;;;27.72;52.94;99425.22;5039333;28;20128;-77
2023/06/24 06:55:49;;;;;;;23.52;15.55;;;;;;;26.84;55.23;99425.84;5042802;28;20025;-76
2023/06/24 06:58:15;;;;;;;16.30;14.60;;;;;;;27.33;54.17;99416.41;5053995;28;20021;-82
2023/06/24 07:00:40;;;;;;;18.67;15.45;;;;;;;27.18;54.37;99420.94;5034055;28;20028;-84
2023/06/24 07:03:05;;;;;;;23.85;14.50;;;;;;;27.52;54.13;99413.88;5020452;28;20033;-84
2023/06/24 07:05:31;;;;;;;16.90;14.57;;;;;;;27.62;52.09;99414.84;5015666;28;20048;-81
2023/06/24 07:07:56;;;;;;;21.38;14.00;;;;;;;28.18;52.94;99412.81;5019376;28;20174;-85
2023/06/24 07:10:22;;;;;;;31.30;25.17;;;;;;;27.93;51.46;99410.66;5015925;28;20033;-86
2023/06/24 07:12:47;;;;;;;20.90;13.18;;;;;;;28.34;52.30;99411.88;5032293;28;20029;-83
2023/06/24 07:15:13;;;;;;;17.77;14.38;;;;;;;27.56;51.54;99408.03;5034230;28;20028;-81
2023/06/24 07:17:39;;;;;;;15.77;13.55;;;;;;;28.13;50.86;99405.53;5034052;28;20040;-82
2023/06/24 07:20:05;;;;;;;17.98;14.98;;;;;;;28.15;51.09;99405.88;4999702;28;20535;-88
2023/06/24 07:22:31;;;;;;;16.75;13.73;;;;;;;27.73;50.79;99403.03;5038364;28;20068;-88
2023/06/24 07:24:57;;;;;;;16.52;14.55;;;;;;;28.19;50.94;99410.72;5051637;28;20032;-84
2023/06/24 07:27:23;;;;;;;21.60;15.95;;;;;;;28.59;48.85;99407.38;5044002;28;20060;-79
2023/06/24 07:29:48;;;;;;;24.98;18.52;;;;;;;28.05;49.87;99403.31;5016374;28;20483;-84
2023/06/24 07:32:14;;;;;;;18.90;14.18;;;;;;;28.17;49.91;99414.00;5034840;28;20104;-87
2023/06/24 07:34:39;;;;;;;19.83;16.17;;;;;;;27.79;51.91;99406.13;5033942;28;20094;-89
2023/06/24 07:37:05;;;;;;;22.15;15.40;;;;;;;28.09;50.97;99416.31;5054267;28;20029;-88
2023/06/24 07:39:30;;;;;;;16.05;14.05;;;;;;;28.11;49.71;99410.91;5036222;28;20021;-87
2023/06/24 07:41:56;;;;;;;16.20;14.50;;;;;;;28.55;50.05;99419.03;5036123;28;20037;-88
2023/06/24 07:44:21;;;;;;;15.18;13.45;;;;;;;28.50;48.68;99418.78;5054081;28;20028;-83
2023/06/24 07:46:48;;;;;;;20.77;14.40;;;;;;;28.69;48.51;99406.22;5054126;28;20028;-90
2023/06/24 07:49:13;;;;;;;25.50;15.07;;;;;;;29.10;48.22;99403.63;5029642;28;20037;-89
2023/06/24 07:51:39;;;;;;;29.02;24.92;;;;;;;29.13;47.06;99404.78;5054291;28;20226;-90
2023/06/24 07:54:04;;;;;;;24.00;13.60;;;;;;;28.48;47.41;99422.13;5036902;28;20024;-89
2023/06/24 07:56:30;;;;;;;29.85;24.60;;;;;;;28.57;47.25;99418.53;5036582;28;20032;-89
2023/06/24 07:58:55;;;;;;;14.73;13.23;;;;;;;28.88;48.46;99412.22;5036352;28;20091;-89
2023/06/24 08:01:21;;;;;;;17.15;13.07;;;;;;;29.04;46.18;99416.19;5036680;28;20025;-88
2023/06/24 08:03:46;;;;;;;13.27;11.88;;;;;;;29.46;46.53;99426.69;5036266;28;20025;-89
2023/06/24 08:06:12;;;;;;;13.70;11.85;;;;;;;29.67;45.93;99413.56;5016180;28;20025;-89
2023/06/24 08:08:37;;;;;;;17.17;13.98;;;;;;;28.95;45.57;99409.06;5016362;28;20564;-88
2023/06/24 08:11:03;;;;;;;17.38;12.60;;;;;;;28.25;47.39;99414.66;5033842;28;20152;-88
2023/06/24 08:13:29;;;;;;;15.75;11.38;;;;;;;29.20;47.70;99424.69;5016119;28;20033;-89
2023/06/24 08:15:54;;;;;;;21.05;12.40;;;;;;;29.70;44.20;99419.19;5033668;28;20029;-89
2023/06/24 08:18:20;;;;;;;19.58;17.58;;;;;;;29.05;45.80;99412.06;5030504;28;20516;-90
2023/06/24 08:20:45;;;;;;;16.63;12.15;;;;;;;29.07;46.04;99406.63;5032497;28;20061;-88
2023/06/24 08:23:10;;;;;;;13.98;12.43;;;;;;;28.90;45.70;99406.81;5016162;28;20033;-89
2023/06/24 08:25:36;;;;;;;15.27;12.38;;;;;;;29.21;44.90;99414.78;5034055;28;20025;-89
2023/06/24 08:28:01;;;;;;;13.13;11.25;;;;;;;29.74;43.92;99419.06;5035857;28;20021;-89
2023/06/24 08:30:27;;;;;;;11.65;10.02;;;;;;;29.26;44.81;99413.38;5035761;28;20418;-88
2023/06/24 08:32:53;;;;;;;14.68;10.68;;;;;;;30.02;46.21;99404.81;5053486;28;20024;-88
2023/06/24 08:35:18;;;;;;;12.75;11.18;;;;;;;29.86;44.57;99410.81;5053455;28;20029;-89
2023/06/24 08:37:43;;;;;;;18.98;11.60;;;;;;;30.28;42.82;99410.41;5053084;28;20024;-89
2023/06/24 08:40:09;;;;;;;13.38;9.75;;;;;;;30.49;42.39;99405.88;5033492;28;20380;-86
2023/06/24 08:42:36;;;;;;;13.27;10.15;;;;;;;30.98;41.97;99412.13;5015378;28;20025;-77
2023/06/24 08:45:05;;;;;;;13.82;10.05;;;;;;;31.15;41.35;99411.81;5015015;28;20026;-76
2023/06/24 08:47:30;;;;;;;19.58;10.77;;;;;;;31.23;40.30;99407.38;5036107;28;20463;-75
2023/06/24 08:50:03;;;;;;;14.98;9.30;;;;;;;31.42;39.66;99410.25;5043306;28;20022;-74
2023/06/24 08:52:35;;;;;;;10.43;9.40;;;;;;;31.10;39.49;99413.25;5031895;28;20832;-74
2023/06/24 08:55:01;;;;;;;22.73;9.80;;;;;;;31.64;39.88;99416.66;5017885;28;20013;-84
2023/06/24 08:57:26;;;;;;;11.75;9.25;;;;;;;31.82;38.35;99399.81;5009195;28;20040;-81
2023/06/24 08:59:53;;;;;;;11.02;9.10;;;;;;;31.95;39.28;99414.88;5014725;28;20013;-78
2023/06/24 09:02:19;;;;;;;13.18;9.43;;;;;;;31.99;38.53;99403.97;5024462;28;20021;-77
2023/06/24 09:04:45;;;;;;;9.57;8.68;;;;;;;32.04;37.46;99406.19;5038421;28;20095;-82
2023/06/24 09:07:11;;;;;;;11.10;8.60;;;;;;;31.96;38.12;99402.03;5011988;28;20026;-82
2023/06/24 09:09:44;;;;;;;14.23;9.25;;;;;;;32.25;38.03;99400.66;5013708;28;20523;-88
2023/06/24 09:12:14;;;;;;;10.10;9.10;;;;;;;32.16;37.37;99401.50;5029357;28;20029;-80
2023/06/24 09:14:40;;;;;;;12.32;9.57;;;;;;;32.38;36.92;99396.78;5011367;28;20511;-75
2023/06/24 09:17:09;;;;;;;11.95;10.35;;;;;;;32.22;36.88;99395.88;5028641;28;20021;-84
2023/06/24 09:19:39;;;;;;;11.75;9.52;;;;;;;32.18;38.32;99389.44;5013473;28;20741;-77
2023/06/24 09:22:09;;;;;;;10.35;9.00;;;;;;;32.11;37.74;99384.81;5021109;28;20032;-83
2023/06/24 09:24:36;;;;;;;11.13;9.93;;;;;;;32.55;36.77;99389.28;5012795;28;20014;-88
2023/06/24 09:27:02;;;;;;;10.63;9.63;;;;;;;32.34;36.27;99379.56;5011588;28;20037;-83
2023/06/24 09:29:31;;;;;;;12.48;10.23;;;;;;;32.99;37.04;99387.94;5037609;28;20052;-84
2023/06/24 09:31:59;;;;;;;10.27;9.27;;;;;;;32.77;36.15;99374.56;5031212;28;20040;-89
2023/06/24 09:34:24;;;;;;;10.27;9.23;;;;;;;32.84;36.45;99370.50;5014018;28;20546;-81
2023/06/24 09:36:55;;;;;;;14.00;10.43;;;;;;;33.21;34.48;99360.72;5031487;28;20107;-83
2023/06/24 09:39:30;;;;;;;12.50;8.75;;;;;;;33.52;34.23;99361.63;5012829;28;20026;-87
2023/06/24 09:42:00;;;;;;;11.73;8.73;;;;;;;33.80;33.16;99361.34;5012210;28;20022;-84
2023/06/24 09:44:27;;;;;;;11.07;8.40;;;;;;;33.73;33.10;99357.53;5013171;28;20538;-80
2023/06/24 09:46:52;;;;;;;8.85;7.88;;;;;;;33.17;33.18;99346.44;5013933;28;20506;-83
2023/06/24 09:49:18;;;;;;;8.75;7.50;;;;;;;33.15;33.52;99349.03;5017435;28;20067;-83
2023/06/24 09:51:46;;;;;;;10.13;7.63;;;;;;;33.25;33.12;99340.25;5010587;28;20574;-82
2023/06/24 09:54:14;;;;;;;10.95;7.30;;;;;;;33.32;32.73;99337.78;5019591;28;20025;-83
2023/06/24 09:56:44;;;;;;;8.10;6.70;;;;;;;33.53;31.39;99337.13;5048679;28;20057;-82
2023/06/24 09:59:12;;;;;;;17.05;7.35;;;;;;;33.60;31.87;99328.81;5027294;28;20029;-83
2023/06/24 10:01:40;;;;;;;8.52;7.75;;;;;;;33.81;31.58;99322.34;5047554;28;20086;-83
2023/06/24 10:04:10;;;;;;;8.75;6.55;;;;;;;33.64;32.64;99336.56;5048335;28;20193;-82
2023/06/24 10:06:38;;;;;;;8.30;7.53;;;;;;;33.38;32.46;99332.09;5033224;28;20426;-82
2023/06/24 10:09:04;;;;;;;10.70;7.35;;;;;;;33.54;32.78;99321.34;5039087;28;20025;-82
2023/06/24 10:11:32;;;;;;;12.73;6.85;;;;;;;33.99;31.77;99327.16;5030652;28;20075;-82
2023/06/24 10:13:58;;;;;;;8.95;6.63;;;;;;;33.79;30.61;99331.53;5049173;28;20033;-82
2023/06/24 10:16:24;;;;;;;7.93;7.13;;;;;;;33.98;31.38;99320.53;5024799;28;20041;-82
2023/06/24 10:18:49;;;;;;;7.20;6.50;;;;;;;33.92;32.02;99322.53;5037292;28;20515;-82
2023/06/24 10:21:16;;;;;;;15.90;6.47;;;;;;;33.58;31.38;99310.34;5012811;28;20037;-82
2023/06/24 10:23:41;;;;;;;9.35;6.78;;;;;;;33.39;31.11;99322.09;5017601;28;20033;-82
2023/06/24 10:26:23;;;;;;;9.55;7.55;;;;;;;34.08;31.64;99320.44;5021459;28;20030;-83
2023/06/24 10:29:07;;;;;;;7.93;7.22;;;;;;;33.96;31.86;99308.63;5013957;28;20037;-81
2023/06/24 10:31:39;;;;;;;8.88;7.95;;;;;;;33.56;30.99;99315.88;5035674;28;20112;-81
2023/06/24 10:34:32;;;;;;;12.73;7.78;;;;;;;34.12;31.46;99297.81;5014307;28;20033;-82
2023/06/24 10:37:20;;;;;;;8.32;7.00;;;;;;;34.79;30.43;99300.09;5023907;28;20042;-82
2023/06/24 10:40:00;;;;;;;9.32;7.10;;;;;;;34.90;30.23;99289.94;5043752;28;20389;-82
2023/06/24 10:42:42;;;;;;;9.23;7.43;;;;;;;34.51;30.60;99291.84;5022071;28;20416;-77
2023/06/24 10:45:19;;;;;;;12.90;7.40;;;;;;;34.13;31.04;99284.91;5043982;28;20112;-83
2023/06/24 10:47:49;;;;;;;8.95;7.70;;;;;;;34.26;31.13;99282.47;5023695;28;20029;-80
2023/06/24 10:50:23;;;;;;;8.25;6.30;;;;;;;33.90;31.75;99275.81;5051536;28;20120;-83
2023/06/24 10:52:55;;;;;;;12.65;6.88;;;;;;;34.54;31.30;99266.78;5019057;28;20045;-83
2023/06/24 10:55:28;;;;;;;6.93;5.90;;;;;;;34.60;31.47;99263.94;5031410;28;20025;-84
2023/06/24 10:57:53;;;;;;;9.60;6.90;;;;;;;34.71;31.14;99264.09;5040836;28;20130;-83
2023/06/24 11:00:20;;;;;;;13.50;7.47;;;;;;;34.99;31.68;99255.72;5031626;28;20499;-83
2023/06/24 11:02:46;;;;;;;7.63;6.88;;;;;;;34.89;30.67;99250.59;5039947;28;20104;-83
2023/06/24 11:05:11;;;;;;;7.30;6.60;;;;;;;34.79;30.22;99244.94;5049372;28;20031;-83
2023/06/24 11:07:38;;;;;;;6.43;5.93;;;;;;;35.28;30.04;99248.09;5022329;28;20538;-83
2023/06/24 11:10:06;;;;;;;8.55;7.55;;;;;;;35.22;29.68;99234.84;5039794;28;20606;-83
2023/06/24 11:12:37;;;;;;;7.13;6.45;;;;;;;35.19;29.97;99225.06;5041639;28;20036;-84
2023/06/24 11:15:04;;;;;;;8.15;6.70;;;;;;;35.30;29.60;99221.44;5050031;28;20026;-84
2023/06/24 11:17:30;;;;;;;7.30;6.63;;;;;;;35.36;30.34;99216.50;5042378;28;20437;-84
2023/06/24 11:19:57;;;;;;;8.45;6.70;;;;;;;35.05;29.69;99217.22;5040481;28;20049;-84